sensor_id;sensor_type;location;lat;lon;timestamp;pressure;altitude;pressure_sealevel;temperature;humidity
65019;BME280;66069;51.164;-114.452;2023-03-03T00:03:11;86118.84;;;16.48;37.83
65019;BME280;66069;51.164;-114.452;2023-03-03T00:06:35;86132.50;;;16.46;37.92
65019;BME280;66069;51.164;-114.452;2023-03-03T00:09:10;86093.28;;;16.13;37.81
65019;BME280;66069;51.164;-114.452;2023-03-03T00:11:55;86108.97;;;16.08;37.78
65019;BME280;66069;51.164;-114.452;2023-03-03T00:14:28;86148.03;;;16.35;37.82
65019;BME280;66069;51.164;-114.452;2023-03-03T00:16:56;86148.03;;;16.35;37.96
65019;BME280;66069;51.164;-114.452;2023-03-03T00:19:23;86146.69;;;16.30;37.81
65019;BME280;66069;51.164;-114.452;2023-03-03T00:21:50;86158.19;;;16.36;37.83
65019;BME280;66069;51.164;-114.452;2023-03-03T00:24:23;86148.72;;;16.26;37.83
65019;BME280;66069;51.164;-114.452;2023-03-03T00:26:55;86155.66;;;16.33;37.88
65019;BME280;66069;51.164;-114.452;2023-03-03T00:29:34;86147.25;;;16.25;38.27
65019;BME280;66069;51.164;-114.452;2023-03-03T00:37:59;86179.16;;;16.31;38.38
65019;BME280;66069;51.164;-114.452;2023-03-03T00:40:35;86178.44;;;16.30;38.28
65019;BME280;66069;51.164;-114.452;2023-03-03T00:43:18;86159.28;;;16.17;38.21
65019;BME280;66069;51.164;-114.452;2023-03-03T00:51:28;86182.50;;;16.22;38.28
65019;BME280;66069;51.164;-114.452;2023-03-03T00:54:14;86144.06;;;15.99;38.33
65019;BME280;66069;51.164;-114.452;2023-03-03T00:56:40;86155.25;;;16.03;38.27
65019;BME280;66069;51.164;-114.452;2023-03-03T00:59:07;86172.94;;;16.15;38.32
65019;BME280;66069;51.164;-114.452;2023-03-03T01:01:36;86174.22;;;16.11;38.23
65019;BME280;66069;51.164;-114.452;2023-03-03T01:04:09;86180.13;;;16.15;38.12
65019;BME280;66069;51.164;-114.452;2023-03-03T01:06:35;86166.22;;;16.02;38.08
65019;BME280;66069;51.164;-114.452;2023-03-03T01:09:01;86170.38;;;16.03;38.15
65019;BME280;66069;51.164;-114.452;2023-03-03T01:11:28;86181.69;;;16.03;38.26
65019;BME280;66069;51.164;-114.452;2023-03-03T01:14:01;86160.72;;;15.87;37.99
65019;BME280;66069;51.164;-114.452;2023-03-03T01:16:48;86174.41;;;15.95;38.30
65019;BME280;66069;51.164;-114.452;2023-03-03T01:19:15;86190.91;;;15.99;38.00
65019;BME280;66069;51.164;-114.452;2023-03-03T01:21:41;86204.88;;;16.08;38.30
65019;BME280;66069;51.164;-114.452;2023-03-03T01:24:08;86183.22;;;15.92;38.14
65019;BME280;66069;51.164;-114.452;2023-03-03T01:26:34;86200.00;;;15.98;38.36
65019;BME280;66069;51.164;-114.452;2023-03-03T01:29:00;86185.13;;;15.91;38.05
65019;BME280;66069;51.164;-114.452;2023-03-03T01:31:27;86213.41;;;16.03;38.30
65019;BME280;66069;51.164;-114.452;2023-03-03T01:33:53;86202.63;;;15.98;38.33
65019;BME280;66069;51.164;-114.452;2023-03-03T01:36:23;86191.44;;;15.94;38.14
65019;BME280;66069;51.164;-114.452;2023-03-03T01:38:49;86198.69;;;16.02;38.19
65019;BME280;66069;51.164;-114.452;2023-03-03T01:41:16;86185.38;;;15.84;38.06
65019;BME280;66069;51.164;-114.452;2023-03-03T01:43:48;86197.59;;;15.91;38.42
65019;BME280;66069;51.164;-114.452;2023-03-03T01:48:52;86197.44;;;15.85;38.30
65019;BME280;66069;51.164;-114.452;2023-03-03T01:51:35;86199.00;;;15.82;38.53
65019;BME280;66069;51.164;-114.452;2023-03-03T01:54:09;86198.28;;;15.82;38.16
65019;BME280;66069;51.164;-114.452;2023-03-03T01:56:36;86187.50;;;15.76;38.43
65019;BME280;66069;51.164;-114.452;2023-03-03T01:59:24;86212.16;;;15.95;38.53
65019;BME280;66069;51.164;-114.452;2023-03-03T02:01:57;86196.69;;;15.84;38.61
65019;BME280;66069;51.164;-114.452;2023-03-03T02:04:24;86206.69;;;15.89;38.48
65019;BME280;66069;51.164;-114.452;2023-03-03T02:06:59;86175.44;;;15.66;38.40
65019;BME280;66069;51.164;-114.452;2023-03-03T02:12:18;86214.13;;;15.82;38.31
65019;BME280;66069;51.164;-114.452;2023-03-03T02:14:47;86207.47;;;15.77;38.31
65019;BME280;66069;51.164;-114.452;2023-03-03T02:17:16;86204.69;;;15.72;38.48
65019;BME280;66069;51.164;-114.452;2023-03-03T02:20:08;86233.53;;;15.88;38.24
65019;BME280;66069;51.164;-114.452;2023-03-03T02:22:46;86234.72;;;15.87;38.40
65019;BME280;66069;51.164;-114.452;2023-03-03T02:25:22;86230.97;;;15.75;38.05
65019;BME280;66069;51.164;-114.452;2023-03-03T02:27:52;86236.56;;;15.77;38.46
65019;BME280;66069;51.164;-114.452;2023-03-03T02:30:20;86245.84;;;15.82;38.52
65019;BME280;66069;51.164;-114.452;2023-03-03T02:32:47;86247.44;;;15.79;38.06
65019;BME280;66069;51.164;-114.452;2023-03-03T02:35:34;86247.13;;;15.77;38.03
65019;BME280;66069;51.164;-114.452;2023-03-03T02:38:21;86252.28;;;15.81;38.22
65019;BME280;66069;51.164;-114.452;2023-03-03T02:43:38;86237.59;;;15.80;38.15
65019;BME280;66069;51.164;-114.452;2023-03-03T02:46:07;86233.31;;;15.73;38.04
65019;BME280;66069;51.164;-114.452;2023-03-03T02:48:33;86260.75;;;15.76;38.11
65019;BME280;66069;51.164;-114.452;2023-03-03T02:51:00;86245.28;;;15.65;38.15
65019;BME280;66069;51.164;-114.452;2023-03-03T02:53:26;86246.63;;;15.70;38.12
65019;BME280;66069;51.164;-114.452;2023-03-03T02:55:52;86258.25;;;15.72;38.34
65019;BME280;66069;51.164;-114.452;2023-03-03T02:58:19;86266.91;;;15.73;38.09
65019;BME280;66069;51.164;-114.452;2023-03-03T03:00:45;86256.59;;;15.66;38.12
65019;BME280;66069;51.164;-114.452;2023-03-03T03:03:14;86270.41;;;15.70;38.09
65019;BME280;66069;51.164;-114.452;2023-03-03T03:05:40;86262.63;;;15.66;38.33
65019;BME280;66069;51.164;-114.452;2023-03-03T03:08:07;86278.13;;;15.64;38.13
65019;BME280;66069;51.164;-114.452;2023-03-03T03:10:35;86263.13;;;15.61;38.34
65019;BME280;66069;51.164;-114.452;2023-03-03T03:13:24;86279.94;;;15.67;38.37
65019;BME280;66069;51.164;-114.452;2023-03-03T03:15:50;86267.91;;;15.53;38.25
65019;BME280;66069;51.164;-114.452;2023-03-03T03:18:17;86259.56;;;15.55;38.26
65019;BME280;66069;51.164;-114.452;2023-03-03T03:20:44;86283.97;;;15.59;38.41
65019;BME280;66069;51.164;-114.452;2023-03-03T03:23:12;86279.94;;;15.54;38.25
65019;BME280;66069;51.164;-114.452;2023-03-03T03:26:03;86299.59;;;15.66;38.35
65019;BME280;66069;51.164;-114.452;2023-03-03T03:28:30;86250.03;;;15.23;38.33
65019;BME280;66069;51.164;-114.452;2023-03-03T03:30:58;86291.97;;;15.55;38.44
65019;BME280;66069;51.164;-114.452;2023-03-03T03:33:24;86240.75;;;15.18;38.57
65019;BME280;66069;51.164;-114.452;2023-03-03T03:35:53;86305.72;;;15.63;38.67
65019;BME280;66069;51.164;-114.452;2023-03-03T03:38:21;86296.03;;;15.47;38.32
65019;BME280;66069;51.164;-114.452;2023-03-03T03:40:48;86310.91;;;15.54;38.48
65019;BME280;66069;51.164;-114.452;2023-03-03T03:43:14;86316.94;;;15.54;38.58
65019;BME280;66069;51.164;-114.452;2023-03-03T03:45:44;86324.22;;;15.63;38.76
65019;BME280;66069;51.164;-114.452;2023-03-03T03:48:23;86311.31;;;15.52;38.71
65019;BME280;66069;51.164;-114.452;2023-03-03T03:50:52;86304.06;;;15.44;39.43
65019;BME280;66069;51.164;-114.452;2023-03-03T03:53:18;86310.56;;;15.52;39.83
65019;BME280;66069;51.164;-114.452;2023-03-03T03:56:10;86342.28;;;15.65;40.05
65019;BME280;66069;51.164;-114.452;2023-03-03T03:58:36;86325.16;;;15.56;39.90
65019;BME280;66069;51.164;-114.452;2023-03-03T04:04:03;86313.16;;;15.30;39.98
65019;BME280;66069;51.164;-114.452;2023-03-03T04:06:39;86344.38;;;15.57;39.70
65019;BME280;66069;51.164;-114.452;2023-03-03T04:09:09;86365.31;;;15.64;39.90
65019;BME280;66069;51.164;-114.452;2023-03-03T04:11:35;86378.28;;;15.71;40.18
65019;BME280;66069;51.164;-114.452;2023-03-03T04:14:22;86370.06;;;15.56;40.69
65019;BME280;66069;51.164;-114.452;2023-03-03T04:16:49;86378.63;;;15.60;40.69
65019;BME280;66069;51.164;-114.452;2023-03-03T04:19:30;86403.88;;;15.74;40.77
65019;BME280;66069;51.164;-114.452;2023-03-03T04:22:02;86400.59;;;15.70;40.54
65019;BME280;66069;51.164;-114.452;2023-03-03T04:24:48;86360.16;;;15.35;40.37
65019;BME280;66069;51.164;-114.452;2023-03-03T04:27:36;86388.84;;;15.58;40.59
65019;BME280;66069;51.164;-114.452;2023-03-03T04:30:04;86398.28;;;15.72;40.32
65019;BME280;66069;51.164;-114.452;2023-03-03T04:32:31;86387.63;;;15.63;40.63
65019;BME280;66069;51.164;-114.452;2023-03-03T04:35:01;86394.72;;;15.66;40.58
65019;BME280;66069;51.164;-114.452;2023-03-03T04:37:36;86412.97;;;15.73;40.91
65019;BME280;66069;51.164;-114.452;2023-03-03T04:40:44;86358.06;;;15.30;41.01
65019;BME280;66069;51.164;-114.452;2023-03-03T04:43:10;86413.50;;;15.68;41.21
65019;BME280;66069;51.164;-114.452;2023-03-03T04:45:37;86412.63;;;15.71;40.99
65019;BME280;66069;51.164;-114.452;2023-03-03T04:48:03;86386.22;;;15.46;41.20
65019;BME280;66069;51.164;-114.452;2023-03-03T04:50:30;86387.72;;;15.47;40.89
65019;BME280;66069;51.164;-114.452;2023-03-03T04:52:56;86360.38;;;15.15;41.02
65019;BME280;66069;51.164;-114.452;2023-03-03T04:55:42;86415.09;;;15.53;41.09
65019;BME280;66069;51.164;-114.452;2023-03-03T04:58:09;86460.81;;;15.88;41.03
65019;BME280;66069;51.164;-114.452;2023-03-03T05:00:45;86410.00;;;15.46;40.99
65019;BME280;66069;51.164;-114.452;2023-03-03T05:03:45;86455.34;;;15.82;40.94
65019;BME280;66069;51.164;-114.452;2023-03-03T05:06:11;86463.25;;;15.82;41.05
65019;BME280;66069;51.164;-114.452;2023-03-03T05:08:38;86449.63;;;15.71;40.93
65019;BME280;66069;51.164;-114.452;2023-03-03T05:11:04;86478.16;;;15.89;41.12
65019;BME280;66069;51.164;-114.452;2023-03-03T05:13:31;86480.72;;;15.80;40.95
65019;BME280;66069;51.164;-114.452;2023-03-03T05:16:02;86475.75;;;15.69;40.83
65019;BME280;66069;51.164;-114.452;2023-03-03T05:18:49;86518.97;;;15.88;40.94
65019;BME280;66069;51.164;-114.452;2023-03-03T05:21:16;86534.84;;;15.88;40.83
65019;BME280;66069;51.164;-114.452;2023-03-03T05:23:42;86504.19;;;15.65;40.61
65019;BME280;66069;51.164;-114.452;2023-03-03T05:26:09;86502.78;;;15.60;40.85
65019;BME280;66069;51.164;-114.452;2023-03-03T05:28:35;86501.59;;;15.49;40.83
65019;BME280;66069;51.164;-114.452;2023-03-03T05:31:23;86530.91;;;15.67;40.79
65019;BME280;66069;51.164;-114.452;2023-03-03T05:33:52;86538.31;;;15.72;40.68
65019;BME280;66069;51.164;-114.452;2023-03-03T05:36:31;86499.69;;;15.49;40.77
65019;BME280;66069;51.164;-114.452;2023-03-03T05:39:03;86565.50;;;15.73;40.51
65019;BME280;66069;51.164;-114.452;2023-03-03T05:41:29;86544.66;;;15.62;40.75
65019;BME280;66069;51.164;-114.452;2023-03-03T05:43:55;86569.59;;;15.74;40.83
65019;BME280;66069;51.164;-114.452;2023-03-03T05:46:25;86558.59;;;15.63;40.79
65019;BME280;66069;51.164;-114.452;2023-03-03T05:48:51;86575.59;;;15.61;40.97
65019;BME280;66069;51.164;-114.452;2023-03-03T05:51:17;86605.53;;;15.71;40.80
65019;BME280;66069;51.164;-114.452;2023-03-03T05:53:44;86609.03;;;15.68;40.89
65019;BME280;66069;51.164;-114.452;2023-03-03T05:56:10;86606.81;;;15.67;40.76
65019;BME280;66069;51.164;-114.452;2023-03-03T05:58:36;86636.94;;;15.82;40.48
65019;BME280;66069;51.164;-114.452;2023-03-03T06:01:03;86625.94;;;15.71;40.78
65019;BME280;66069;51.164;-114.452;2023-03-03T06:03:30;86645.94;;;15.84;40.54
65019;BME280;66069;51.164;-114.452;2023-03-03T06:05:56;86619.03;;;15.60;40.59
65019;BME280;66069;51.164;-114.452;2023-03-03T06:08:32;86658.81;;;15.82;40.64
65019;BME280;66069;51.164;-114.452;2023-03-03T06:10:58;86624.97;;;15.65;40.61
65019;BME280;66069;51.164;-114.452;2023-03-03T06:13:44;86664.09;;;15.82;40.53
65019;BME280;66069;51.164;-114.452;2023-03-03T06:16:11;86636.59;;;15.67;40.50
65019;BME280;66069;51.164;-114.452;2023-03-03T06:18:44;86640.31;;;15.70;40.53
65019;BME280;66069;51.164;-114.452;2023-03-03T06:21:12;86646.00;;;15.68;40.52
65019;BME280;66069;51.164;-114.452;2023-03-03T06:23:39;86650.56;;;15.68;40.58
65019;BME280;66069;51.164;-114.452;2023-03-03T06:26:06;86662.19;;;15.70;40.51
65019;BME280;66069;51.164;-114.452;2023-03-03T06:28:32;86666.50;;;15.64;40.48
65019;BME280;66069;51.164;-114.452;2023-03-03T06:30:59;86663.34;;;15.69;40.36
65019;BME280;66069;51.164;-114.452;2023-03-03T06:33:25;86664.28;;;15.63;40.50
65019;BME280;66069;51.164;-114.452;2023-03-03T06:38:56;86621.25;;;15.33;40.50
65019;BME280;66069;51.164;-114.452;2023-03-03T06:41:42;86662.03;;;15.61;40.41
65019;BME280;66069;51.164;-114.452;2023-03-03T06:44:08;86664.66;;;15.61;40.50
65019;BME280;66069;51.164;-114.452;2023-03-03T06:46:36;86663.53;;;15.62;40.43
65019;BME280;66069;51.164;-114.452;2023-03-03T06:49:04;86648.09;;;15.60;40.44
65019;BME280;66069;51.164;-114.452;2023-03-03T06:51:35;86659.31;;;15.65;40.55
65019;BME280;66069;51.164;-114.452;2023-03-03T06:54:13;86593.88;;;15.27;40.67
65019;BME280;66069;51.164;-114.452;2023-03-03T06:56:43;86660.28;;;15.71;40.61
65019;BME280;66069;51.164;-114.452;2023-03-03T07:01:44;86654.78;;;15.65;40.50
65019;BME280;66069;51.164;-114.452;2023-03-03T07:04:27;86629.88;;;15.50;40.38
65019;BME280;66069;51.164;-114.452;2023-03-03T07:07:32;86636.97;;;15.53;40.28
65019;BME280;66069;51.164;-114.452;2023-03-03T07:09:59;86638.75;;;15.56;40.34
65019;BME280;66069;51.164;-114.452;2023-03-03T07:12:28;86638.53;;;15.50;40.42
65019;BME280;66069;51.164;-114.452;2023-03-03T07:15:19;86640.44;;;15.50;40.36
65019;BME280;66069;51.164;-114.452;2023-03-03T07:18:03;86642.25;;;15.53;40.23
65019;BME280;66069;51.164;-114.452;2023-03-03T07:20:38;86632.50;;;15.50;40.19
65019;BME280;66069;51.164;-114.452;2023-03-03T07:25:44;86620.66;;;15.42;40.43
65019;BME280;66069;51.164;-114.452;2023-03-03T07:28:31;86645.44;;;15.60;40.42
65019;BME280;66069;51.164;-114.452;2023-03-03T07:31:48;86650.72;;;15.60;40.34
65019;BME280;66069;51.164;-114.452;2023-03-03T07:34:37;86615.47;;;15.38;40.29
65019;BME280;66069;51.164;-114.452;2023-03-03T07:37:34;86600.56;;;15.31;40.40
65019;BME280;66069;51.164;-114.452;2023-03-03T07:39:57;86643.63;;;15.57;40.37
65019;BME280;66069;51.164;-114.452;2023-03-03T07:42:26;86619.34;;;15.33;40.33
65019;BME280;66069;51.164;-114.452;2023-03-03T07:44:56;86602.00;;;15.20;40.18
65019;BME280;66069;51.164;-114.452;2023-03-03T07:47:38;86610.88;;;15.26;40.45
65019;BME280;66069;51.164;-114.452;2023-03-03T07:50:28;86628.16;;;15.43;40.16
65019;BME280;66069;51.164;-114.452;2023-03-03T07:52:58;86598.06;;;15.12;40.26
65019;BME280;66069;51.164;-114.452;2023-03-03T07:55:36;86637.13;;;15.46;40.10
65019;BME280;66069;51.164;-114.452;2023-03-03T08:03:43;86665.25;;;15.52;40.02
65019;BME280;66069;51.164;-114.452;2023-03-03T08:06:30;86665.69;;;15.51;40.08
65019;BME280;66069;51.164;-114.452;2023-03-03T08:14:43;86641.22;;;15.34;39.95
65019;BME280;66069;51.164;-114.452;2023-03-03T08:17:19;86644.38;;;15.29;40.04
65019;BME280;66069;51.164;-114.452;2023-03-03T08:19:47;86645.88;;;15.30;40.24
65019;BME280;66069;51.164;-114.452;2023-03-03T08:22:39;86662.69;;;15.36;39.89
65019;BME280;66069;51.164;-114.452;2023-03-03T08:25:05;86645.63;;;15.24;39.96
65019;BME280;66069;51.164;-114.452;2023-03-03T08:27:31;86649.25;;;15.30;40.01
65019;BME280;66069;51.164;-114.452;2023-03-03T08:29:58;86652.31;;;15.29;40.08
65019;BME280;66069;51.164;-114.452;2023-03-03T08:32:44;86661.59;;;15.33;40.09
65019;BME280;66069;51.164;-114.452;2023-03-03T08:35:10;86657.91;;;15.31;40.18
65019;BME280;66069;51.164;-114.452;2023-03-03T08:37:37;86656.84;;;15.28;39.89
65019;BME280;66069;51.164;-114.452;2023-03-03T08:40:03;86675.47;;;15.38;40.07
65019;BME280;66069;51.164;-114.452;2023-03-03T08:42:29;86676.94;;;15.39;39.82
65019;BME280;66069;51.164;-114.452;2023-03-03T08:44:56;86669.94;;;15.32;39.75
65019;BME280;66069;51.164;-114.452;2023-03-03T08:47:22;86666.09;;;15.20;40.03
65019;BME280;66069;51.164;-114.452;2023-03-03T08:49:49;86669.72;;;15.26;40.21
65019;BME280;66069;51.164;-114.452;2023-03-03T08:52:15;86671.72;;;15.22;39.79
65019;BME280;66069;51.164;-114.452;2023-03-03T08:54:41;86670.13;;;15.25;40.15
65019;BME280;66069;51.164;-114.452;2023-03-03T08:57:08;86684.38;;;15.27;39.85
65019;BME280;66069;51.164;-114.452;2023-03-03T08:59:34;86684.38;;;15.27;40.07
65019;BME280;66069;51.164;-114.452;2023-03-03T09:02:05;86695.28;;;15.29;39.86
65019;BME280;66069;51.164;-114.452;2023-03-03T09:04:31;86674.44;;;15.19;40.01
65019;BME280;66069;51.164;-114.452;2023-03-03T09:06:58;86687.94;;;15.21;40.12
65019;BME280;66069;51.164;-114.452;2023-03-03T09:09:24;86673.13;;;15.11;39.92
65019;BME280;66069;51.164;-114.452;2023-03-03T09:12:39;86673.78;;;15.15;39.95
65019;BME280;66069;51.164;-114.452;2023-03-03T09:14:39;86664.13;;;15.08;40.20
65019;BME280;66069;51.164;-114.452;2023-03-03T09:17:24;86658.53;;;15.06;40.02
65019;BME280;66069;51.164;-114.452;2023-03-03T09:22:47;86690.19;;;15.22;39.98
65019;BME280;66069;51.164;-114.452;2023-03-03T09:25:35;86676.34;;;15.18;40.11
65019;BME280;66069;51.164;-114.452;2023-03-03T09:28:02;86685.66;;;15.23;40.10
65019;BME280;66069;51.164;-114.452;2023-03-03T09:30:39;86692.41;;;15.24;40.12
65019;BME280;66069;51.164;-114.452;2023-03-03T09:33:36;86689.78;;;15.24;39.88
65019;BME280;66069;51.164;-114.452;2023-03-03T09:36:28;86652.59;;;15.02;39.79
65019;BME280;66069;51.164;-114.452;2023-03-03T09:38:56;86675.50;;;15.21;39.78
65019;BME280;66069;51.164;-114.452;2023-03-03T09:41:42;86672.09;;;15.21;39.97
65019;BME280;66069;51.164;-114.452;2023-03-03T09:44:32;86678.56;;;15.20;40.03
65019;BME280;66069;51.164;-114.452;2023-03-03T09:50:11;86676.09;;;15.13;39.83
65019;BME280;66069;51.164;-114.452;2023-03-03T09:52:51;86676.75;;;15.17;39.77
65019;BME280;66069;51.164;-114.452;2023-03-03T09:55:36;86679.78;;;15.15;40.06
65019;BME280;66069;51.164;-114.452;2023-03-03T09:58:26;86669.50;;;15.04;39.77
65019;BME280;66069;51.164;-114.452;2023-03-03T10:07:08;86679.88;;;15.12;39.97
65019;BME280;66069;51.164;-114.452;2023-03-03T10:10:28;86678.00;;;15.12;39.68
65019;BME280;66069;51.164;-114.452;2023-03-03T10:13:58;86668.19;;;14.96;39.62
65019;BME280;66069;51.164;-114.452;2023-03-03T10:16:31;86659.22;;;14.94;39.66
65019;BME280;66069;51.164;-114.452;2023-03-03T10:19:22;86684.84;;;15.10;39.92
65019;BME280;66069;51.164;-114.452;2023-03-03T10:25:12;86676.34;;;15.02;39.70
65019;BME280;66069;51.164;-114.452;2023-03-03T10:33:22;86678.91;;;15.05;39.77
65019;BME280;66069;51.164;-114.452;2023-03-03T10:41:49;86666.72;;;14.95;39.76
65019;BME280;66069;51.164;-114.452;2023-03-03T10:52:30;86665.91;;;14.98;39.95
65019;BME280;66069;51.164;-114.452;2023-03-03T11:06:00;86654.59;;;14.81;39.92
65019;BME280;66069;51.164;-114.452;2023-03-03T11:08:51;86663.81;;;14.90;39.61
65019;BME280;66069;51.164;-114.452;2023-03-03T11:11:50;86674.31;;;14.93;39.88
65019;BME280;66069;51.164;-114.452;2023-03-03T11:17:04;86673.25;;;14.91;39.50
65019;BME280;66069;51.164;-114.452;2023-03-03T11:19:45;86677.75;;;14.90;40.15
65019;BME280;66069;51.164;-114.452;2023-03-03T11:22:22;86680.41;;;14.90;40.00
65019;BME280;66069;51.164;-114.452;2023-03-03T11:25:16;86678.19;;;14.89;39.88
65019;BME280;66069;51.164;-114.452;2023-03-03T11:33:44;86670.44;;;14.81;39.43
65019;BME280;66069;51.164;-114.452;2023-03-03T11:36:38;86666.13;;;14.71;39.80
65019;BME280;66069;51.164;-114.452;2023-03-03T11:39:10;86661.28;;;14.70;39.76
65019;BME280;66069;51.164;-114.452;2023-03-03T11:41:55;86676.88;;;14.80;39.97
65019;BME280;66069;51.164;-114.452;2023-03-03T11:47:25;86672.69;;;14.67;39.86
65019;BME280;66069;51.164;-114.452;2023-03-03T11:52:47;86680.41;;;14.74;39.52
65019;BME280;66069;51.164;-114.452;2023-03-03T11:55:35;86677.03;;;14.73;39.70
65019;BME280;66069;51.164;-114.452;2023-03-03T11:58:30;86673.41;;;14.67;39.52
65019;BME280;66069;51.164;-114.452;2023-03-03T12:01:22;86690.13;;;14.77;39.70
65019;BME280;66069;51.164;-114.452;2023-03-03T12:04:14;86693.94;;;14.76;39.60
65019;BME280;66069;51.164;-114.452;2023-03-03T12:09:58;86687.66;;;14.70;39.60
65019;BME280;66069;51.164;-114.452;2023-03-03T12:12:38;86665.81;;;14.53;39.90
65019;BME280;66069;51.164;-114.452;2023-03-03T12:20:38;86695.91;;;14.72;39.57
65019;BME280;66069;51.164;-114.452;2023-03-03T12:26:24;86692.94;;;14.70;39.43
65019;BME280;66069;51.164;-114.452;2023-03-03T12:29:02;86670.34;;;14.52;39.55
65019;BME280;66069;51.164;-114.452;2023-03-03T12:34:38;86680.97;;;14.65;39.67
65019;BME280;66069;51.164;-114.452;2023-03-03T12:47:44;86692.38;;;14.78;40.37
65019;BME280;66069;51.164;-114.452;2023-03-03T12:55:55;86682.47;;;14.66;40.32
65019;BME280;66069;51.164;-114.452;2023-03-03T13:07:25;86696.06;;;14.81;40.68
65019;BME280;66069;51.164;-114.452;2023-03-03T13:13:07;86711.84;;;14.85;40.53
65019;BME280;66069;51.164;-114.452;2023-03-03T13:15:44;86718.09;;;14.91;40.15
65019;BME280;66069;51.164;-114.452;2023-03-03T13:18:46;86727.50;;;14.92;40.39
65019;BME280;66069;51.164;-114.452;2023-03-03T13:24:20;86686.50;;;14.71;40.69
65019;BME280;66069;51.164;-114.452;2023-03-03T13:29:38;86714.78;;;15.03;40.63
65019;BME280;66069;51.164;-114.452;2023-03-03T13:32:18;86710.66;;;15.02;40.93
65019;BME280;66069;51.164;-114.452;2023-03-03T13:35:04;86701.38;;;14.97;41.01
65019;BME280;66069;51.164;-114.452;2023-03-03T13:37:44;86708.94;;;15.12;41.07
65019;BME280;66069;51.164;-114.452;2023-03-03T13:42:45;86721.88;;;15.22;41.32
65019;BME280;66069;51.164;-114.452;2023-03-03T13:51:36;86636.44;;;14.84;41.89
65019;BME280;66069;51.164;-114.452;2023-03-03T14:00:13;86715.38;;;15.56;42.09
65019;BME280;66069;51.164;-114.452;2023-03-03T14:05:44;86700.75;;;15.68;42.33
65019;BME280;66069;51.164;-114.452;2023-03-03T14:19:35;86704.88;;;15.98;42.60
65019;BME280;66069;51.164;-114.452;2023-03-03T14:25:13;86702.75;;;16.05;42.63
65019;BME280;66069;51.164;-114.452;2023-03-03T14:28:11;86705.94;;;16.13;42.57
65019;BME280;66069;51.164;-114.452;2023-03-03T14:30:41;86684.91;;;16.09;42.38
65019;BME280;66069;51.164;-114.452;2023-03-03T14:38:43;86672.97;;;16.18;42.42
65019;BME280;66069;51.164;-114.452;2023-03-03T14:43:38;86674.34;;;16.35;42.22
65019;BME280;66069;51.164;-114.452;2023-03-03T14:49:48;86652.47;;;16.34;42.31
65019;BME280;66069;51.164;-114.452;2023-03-03T14:51:49;86662.41;;;16.43;42.19
65019;BME280;66069;51.164;-114.452;2023-03-03T14:54:28;86677.63;;;16.52;42.18
65019;BME280;66069;51.164;-114.452;2023-03-03T14:59:29;86671.06;;;16.56;42.01
65019;BME280;66069;51.164;-114.452;2023-03-03T15:02:24;86669.06;;;16.60;42.24
65019;BME280;66069;51.164;-114.452;2023-03-03T15:05:12;86679.75;;;16.69;41.99
65019;BME280;66069;51.164;-114.452;2023-03-03T15:07:39;86690.44;;;16.66;42.17
65019;BME280;66069;51.164;-114.452;2023-03-03T15:10:06;86690.03;;;16.67;42.25
65019;BME280;66069;51.164;-114.452;2023-03-03T15:12:34;86707.09;;;16.79;42.11
65019;BME280;66069;51.164;-114.452;2023-03-03T15:17:34;86714.28;;;16.91;42.19
65019;BME280;66069;51.164;-114.452;2023-03-03T15:22:47;86719.59;;;16.91;42.11
65019;BME280;66069;51.164;-114.452;2023-03-03T15:28:17;86739.38;;;17.00;42.14
65019;BME280;66069;51.164;-114.452;2023-03-03T15:33:45;86726.34;;;17.05;42.03
65019;BME280;66069;51.164;-114.452;2023-03-03T15:41:56;86721.78;;;17.06;41.92
65019;BME280;66069;51.164;-114.452;2023-03-03T15:45:24;86698.09;;;16.89;41.78
65019;BME280;66069;51.164;-114.452;2023-03-03T15:53:24;86715.31;;;17.19;41.63
65019;BME280;66069;51.164;-114.452;2023-03-03T15:56:00;86714.16;;;17.20;41.81
65019;BME280;66069;51.164;-114.452;2023-03-03T15:58:40;86715.63;;;17.21;41.58
65019;BME280;66069;51.164;-114.452;2023-03-03T16:01:26;86702.63;;;17.14;41.51
65019;BME280;66069;51.164;-114.452;2023-03-03T16:14:40;86713.19;;;17.27;41.26
65019;BME280;66069;51.164;-114.452;2023-03-03T16:20:20;86706.72;;;17.28;41.32
65019;BME280;66069;51.164;-114.452;2023-03-03T16:25:57;86672.72;;;17.14;41.17
65019;BME280;66069;51.164;-114.452;2023-03-03T16:31:13;86690.38;;;17.30;40.94
65019;BME280;66069;51.164;-114.452;2023-03-03T16:37:05;86666.19;;;17.06;40.81
65019;BME280;66069;51.164;-114.452;2023-03-03T16:39:49;86671.69;;;17.11;40.88
65019;BME280;66069;51.164;-114.452;2023-03-03T16:42:59;86631.38;;;16.82;40.75
65019;BME280;66069;51.164;-114.452;2023-03-03T16:45:39;86672.13;;;17.10;40.62
65019;BME280;66069;51.164;-114.452;2023-03-03T16:51:38;86694.75;;;17.23;40.67
65019;BME280;66069;51.164;-114.452;2023-03-03T16:54:26;86696.66;;;17.23;40.55
65019;BME280;66069;51.164;-114.452;2023-03-03T16:57:08;86690.63;;;17.22;40.61
65019;BME280;66069;51.164;-114.452;2023-03-03T16:59:44;86690.84;;;17.15;40.54
65019;BME280;66069;51.164;-114.452;2023-03-03T17:02:36;86701.66;;;17.21;40.53
65019;BME280;66069;51.164;-114.452;2023-03-03T17:08:11;86698.66;;;17.19;40.35
65019;BME280;66069;51.164;-114.452;2023-03-03T17:10:51;86683.13;;;17.08;40.29
65019;BME280;66069;51.164;-114.452;2023-03-03T17:13:42;86699.53;;;17.16;40.46
65019;BME280;66069;51.164;-114.452;2023-03-03T17:16:37;86702.19;;;17.16;40.47
65019;BME280;66069;51.164;-114.452;2023-03-03T17:22:24;86707.16;;;17.14;40.48
65019;BME280;66069;51.164;-114.452;2023-03-03T17:33:27;86699.75;;;17.09;40.22